sensor_id;sensor_type;location;lat;lon;timestamp;pressure;altitude;pressure_sealevel;temperature;humidity
22025;BME280;11176;51.448;6.650;2023-03-19T00:00:22;45458.19;;;-141.29;97.20
22025;BME280;11176;51.448;6.650;2023-03-19T00:02:49;45452.19;;;-141.29;97.51
22025;BME280;11176;51.448;6.650;2023-03-19T00:05:17;45442.19;;;-141.29;98.06
22025;BME280;11176;51.448;6.650;2023-03-19T00:07:44;45466.19;;;-141.29;98.92
22025;BME280;11176;51.448;6.650;2023-03-19T00:10:11;45450.19;;;-141.29;99.43
22025;BME280;11176;51.448;6.650;2023-03-19T00:12:37;45474.16;;;-141.29;100.00
22025;BME280;11176;51.448;6.650;2023-03-19T00:15:04;45450.19;;;-141.29;100.00
22025;BME280;11176;51.448;6.650;2023-03-19T00:17:34;45466.19;;;-141.29;100.00
22025;BME280;11176;51.448;6.650;2023-03-19T00:20:01;45456.19;;;-141.29;100.00
22025;BME280;11176;51.448;6.650;2023-03-19T00:22:27;45466.19;;;-141.29;100.00
22025;BME280;11176;51.448;6.650;2023-03-19T00:24:54;45468.19;;;-141.29;100.00
22025;BME280;11176;51.448;6.650;2023-03-19T00:27:21;45470.19;;;-141.29;100.00
22025;BME280;11176;51.448;6.650;2023-03-19T00:29:47;45466.19;;;-141.29;100.00
22025;BME280;11176;51.448;6.650;2023-03-19T00:32:14;45470.19;;;-141.29;100.00
22025;BME280;11176;51.448;6.650;2023-03-19T00:34:41;45470.19;;;-141.29;100.00
22025;BME280;11176;51.448;6.650;2023-03-19T00:37:08;45462.19;;;-141.29;100.00
22025;BME280;11176;51.448;6.650;2023-03-19T00:39:35;45470.19;;;-141.29;100.00
22025;BME280;11176;51.448;6.650;2023-03-19T00:42:01;45490.16;;;-141.29;100.00
22025;BME280;11176;51.448;6.650;2023-03-19T00:44:28;45466.19;;;-141.29;100.00
22025;BME280;11176;51.448;6.650;2023-03-19T00:46:54;45470.19;;;-141.29;100.00
22025;BME280;11176;51.448;6.650;2023-03-19T00:49:21;45498.16;;;-141.29;100.00
22025;BME280;11176;51.448;6.650;2023-03-19T00:51:47;45502.16;;;-141.29;100.00
22025;BME280;11176;51.448;6.650;2023-03-19T00:54:14;45490.16;;;-141.29;100.00
22025;BME280;11176;51.448;6.650;2023-03-19T00:56:41;45466.19;;;-141.29;100.00
22025;BME280;11176;51.448;6.650;2023-03-19T00:59:07;45490.16;;;-141.29;100.00
22025;BME280;11176;51.448;6.650;2023-03-19T01:01:34;45482.16;;;-141.29;100.00
22025;BME280;11176;51.448;6.650;2023-03-19T01:04:00;45478.16;;;-141.29;100.00
22025;BME280;11176;51.448;6.650;2023-03-19T01:06:27;45474.16;;;-141.29;100.00
22025;BME280;11176;51.448;6.650;2023-03-19T01:08:53;45466.19;;;-141.29;100.00
22025;BME280;11176;51.448;6.650;2023-03-19T01:11:20;45474.16;;;-141.29;100.00
22025;BME280;11176;51.448;6.650;2023-03-19T01:13:46;45472.16;;;-141.29;100.00
22025;BME280;11176;51.448;6.650;2023-03-19T01:16:14;45480.16;;;-141.29;100.00
22025;BME280;11176;51.448;6.650;2023-03-19T01:18:41;45482.16;;;-141.29;100.00
22025;BME280;11176;51.448;6.650;2023-03-19T01:21:07;45506.16;;;-141.29;100.00
22025;BME280;11176;51.448;6.650;2023-03-19T01:23:40;45474.16;;;-141.29;100.00
22025;BME280;11176;51.448;6.650;2023-03-19T01:26:07;45472.16;;;-141.29;100.00
22025;BME280;11176;51.448;6.650;2023-03-19T01:28:34;45482.16;;;-141.29;100.00
22025;BME280;11176;51.448;6.650;2023-03-19T01:31:05;45482.16;;;-141.29;100.00
22025;BME280;11176;51.448;6.650;2023-03-19T01:33:52;45490.16;;;-141.29;100.00
22025;BME280;11176;51.448;6.650;2023-03-19T01:36:32;45498.16;;;-141.29;100.00
22025;BME280;11176;51.448;6.650;2023-03-19T01:39:01;45484.16;;;-141.29;100.00
22025;BME280;11176;51.448;6.650;2023-03-19T01:41:28;45474.16;;;-141.29;100.00
22025;BME280;11176;51.448;6.650;2023-03-19T01:44:01;45488.16;;;-141.29;100.00
22025;BME280;11176;51.448;6.650;2023-03-19T01:46:36;45478.16;;;-141.29;100.00
22025;BME280;11176;51.448;6.650;2023-03-19T01:49:24;45478.16;;;-141.29;100.00
22025;BME280;11176;51.448;6.650;2023-03-19T01:52:06;45474.16;;;-141.29;100.00
22025;BME280;11176;51.448;6.650;2023-03-19T01:54:49;45490.16;;;-141.29;100.00
22025;BME280;11176;51.448;6.650;2023-03-19T01:57:35;45490.16;;;-141.29;100.00
22025;BME280;11176;51.448;6.650;2023-03-19T02:00:20;45472.16;;;-141.29;100.00
22025;BME280;11176;51.448;6.650;2023-03-19T02:02:51;45506.16;;;-141.29;100.00
22025;BME280;11176;51.448;6.650;2023-03-19T02:05:41;45490.16;;;-141.29;100.00
22025;BME280;11176;51.448;6.650;2023-03-19T02:08:14;45504.16;;;-141.29;100.00
22025;BME280;11176;51.448;6.650;2023-03-19T02:10:43;45480.16;;;-141.29;100.00
22025;BME280;11176;51.448;6.650;2023-03-19T02:13:11;45482.16;;;-141.29;100.00
22025;BME280;11176;51.448;6.650;2023-03-19T02:15:39;45458.19;;;-141.29;100.00
22025;BME280;11176;51.448;6.650;2023-03-19T02:18:06;45494.16;;;-141.29;100.00
22025;BME280;11176;51.448;6.650;2023-03-19T02:20:44;45482.16;;;-141.29;100.00
22025;BME280;11176;51.448;6.650;2023-03-19T02:23:25;45472.16;;;-141.29;100.00
22025;BME280;11176;51.448;6.650;2023-03-19T02:28:34;45466.19;;;-141.29;100.00
22025;BME280;11176;51.448;6.650;2023-03-19T02:31:02;45482.16;;;-141.29;100.00
22025;BME280;11176;51.448;6.650;2023-03-19T02:33:28;45476.16;;;-141.29;100.00
22025;BME280;11176;51.448;6.650;2023-03-19T02:35:55;45468.19;;;-141.29;100.00
22025;BME280;11176;51.448;6.650;2023-03-19T02:38:24;45466.19;;;-141.29;100.00
22025;BME280;11176;51.448;6.650;2023-03-19T02:40:59;45470.19;;;-141.29;100.00
22025;BME280;11176;51.448;6.650;2023-03-19T02:43:26;45478.16;;;-141.29;100.00
22025;BME280;11176;51.448;6.650;2023-03-19T02:45:53;45474.16;;;-141.29;100.00
22025;BME280;11176;51.448;6.650;2023-03-19T02:48:21;45486.16;;;-141.29;100.00
22025;BME280;11176;51.448;6.650;2023-03-19T02:50:48;45494.16;;;-141.29;100.00
22025;BME280;11176;51.448;6.650;2023-03-19T02:53:15;45474.16;;;-141.29;100.00
22025;BME280;11176;51.448;6.650;2023-03-19T02:55:41;45486.16;;;-141.29;100.00
22025;BME280;11176;51.448;6.650;2023-03-19T02:58:08;45484.16;;;-141.29;100.00
22025;BME280;11176;51.448;6.650;2023-03-19T03:00:34;45466.19;;;-141.29;100.00
22025;BME280;11176;51.448;6.650;2023-03-19T03:03:02;45466.19;;;-141.29;100.00
22025;BME280;11176;51.448;6.650;2023-03-19T03:05:29;45482.16;;;-141.29;100.00
22025;BME280;11176;51.448;6.650;2023-03-19T03:07:56;45462.19;;;-141.29;100.00
22025;BME280;11176;51.448;6.650;2023-03-19T03:10:24;45480.16;;;-141.29;100.00
22025;BME280;11176;51.448;6.650;2023-03-19T03:12:50;45470.19;;;-141.29;100.00
22025;BME280;11176;51.448;6.650;2023-03-19T03:15:17;45470.19;;;-141.29;100.00
22025;BME280;11176;51.448;6.650;2023-03-19T03:17:44;45474.16;;;-141.29;100.00
22025;BME280;11176;51.448;6.650;2023-03-19T03:20:13;45470.19;;;-141.29;100.00
22025;BME280;11176;51.448;6.650;2023-03-19T03:22:40;45494.16;;;-141.29;100.00
22025;BME280;11176;51.448;6.650;2023-03-19T03:25:07;45482.16;;;-141.29;100.00
22025;BME280;11176;51.448;6.650;2023-03-19T03:27:36;45482.16;;;-141.29;100.00
22025;BME280;11176;51.448;6.650;2023-03-19T03:30:04;45478.16;;;-141.29;100.00
22025;BME280;11176;51.448;6.650;2023-03-19T03:32:34;45470.19;;;-141.29;100.00
22025;BME280;11176;51.448;6.650;2023-03-19T03:35:05;45484.16;;;-141.29;100.00
22025;BME280;11176;51.448;6.650;2023-03-19T03:37:32;45482.16;;;-141.29;100.00
22025;BME280;11176;51.448;6.650;2023-03-19T03:39:58;45462.19;;;-141.29;100.00
22025;BME280;11176;51.448;6.650;2023-03-19T03:42:25;45486.16;;;-141.29;100.00
22025;BME280;11176;51.448;6.650;2023-03-19T03:44:52;45470.19;;;-141.29;100.00
22025;BME280;11176;51.448;6.650;2023-03-19T03:47:18;45472.16;;;-141.29;99.72
22025;BME280;11176;51.448;6.650;2023-03-19T03:49:45;45478.16;;;-141.29;99.34
22025;BME280;11176;51.448;6.650;2023-03-19T03:52:12;45470.19;;;-141.29;99.52
22025;BME280;11176;51.448;6.650;2023-03-19T03:54:39;45466.19;;;-141.29;99.58
22025;BME280;11176;51.448;6.650;2023-03-19T03:57:06;45462.19;;;-141.29;99.75
22025;BME280;11176;51.448;6.650;2023-03-19T03:59:33;45466.19;;;-141.29;100.00
22025;BME280;11176;51.448;6.650;2023-03-19T04:02:00;45466.19;;;-141.29;100.00
22025;BME280;11176;51.448;6.650;2023-03-19T04:04:26;45478.16;;;-141.29;99.91
22025;BME280;11176;51.448;6.650;2023-03-19T04:06:53;45478.16;;;-141.29;99.74
22025;BME280;11176;51.448;6.650;2023-03-19T04:09:45;45478.16;;;-141.29;99.76
22025;BME280;11176;51.448;6.650;2023-03-19T04:12:12;45470.19;;;-141.29;100.00
22025;BME280;11176;51.448;6.650;2023-03-19T04:14:40;45490.16;;;-141.29;100.00
22025;BME280;11176;51.448;6.650;2023-03-19T04:17:08;45488.16;;;-141.29;100.00
22025;BME280;11176;51.448;6.650;2023-03-19T04:19:34;45466.19;;;-141.29;100.00
22025;BME280;11176;51.448;6.650;2023-03-19T04:22:01;45486.16;;;-141.29;100.00
22025;BME280;11176;51.448;6.650;2023-03-19T04:24:30;45484.16;;;-141.29;100.00
22025;BME280;11176;51.448;6.650;2023-03-19T04:26:58;45482.16;;;-141.29;99.83
22025;BME280;11176;51.448;6.650;2023-03-19T04:29:25;45466.19;;;-141.29;99.59
22025;BME280;11176;51.448;6.650;2023-03-19T04:31:52;45486.16;;;-141.29;99.23
22025;BME280;11176;51.448;6.650;2023-03-19T04:34:19;45458.19;;;-141.29;99.16
22025;BME280;11176;51.448;6.650;2023-03-19T04:36:46;45476.16;;;-141.29;98.92
22025;BME280;11176;51.448;6.650;2023-03-19T04:39:12;45474.16;;;-141.29;98.59
22025;BME280;11176;51.448;6.650;2023-03-19T04:41:39;45466.19;;;-141.29;98.16
22025;BME280;11176;51.448;6.650;2023-03-19T04:44:22;45466.19;;;-141.29;97.97
22025;BME280;11176;51.448;6.650;2023-03-19T04:46:48;45476.16;;;-141.29;97.94
22025;BME280;11176;51.448;6.650;2023-03-19T04:49:17;45464.19;;;-141.29;97.61
22025;BME280;11176;51.448;6.650;2023-03-19T04:51:44;45460.19;;;-141.29;97.48
22025;BME280;11176;51.448;6.650;2023-03-19T04:54:11;45466.19;;;-141.29;97.60
22025;BME280;11176;51.448;6.650;2023-03-19T04:56:38;45478.16;;;-141.29;97.29
22025;BME280;11176;51.448;6.650;2023-03-19T04:59:04;45478.16;;;-141.29;97.48
22025;BME280;11176;51.448;6.650;2023-03-19T05:01:31;45466.19;;;-141.29;98.01
22025;BME280;11176;51.448;6.650;2023-03-19T05:04:04;45468.19;;;-141.29;98.44
22025;BME280;11176;51.448;6.650;2023-03-19T05:06:33;45470.19;;;-141.29;98.33
22025;BME280;11176;51.448;6.650;2023-03-19T05:08:59;45474.16;;;-141.29;98.58
22025;BME280;11176;51.448;6.650;2023-03-19T05:11:26;45458.19;;;-141.29;99.22
22025;BME280;11176;51.448;6.650;2023-03-19T05:14:02;45462.19;;;-141.29;99.62
22025;BME280;11176;51.448;6.650;2023-03-19T05:16:39;45470.19;;;-141.29;99.79
22025;BME280;11176;51.448;6.650;2023-03-19T05:19:06;45466.19;;;-141.29;100.00
22025;BME280;11176;51.448;6.650;2023-03-19T05:21:34;45470.19;;;-141.29;100.00
22025;BME280;11176;51.448;6.650;2023-03-19T05:24:00;45438.19;;;-141.29;100.00
22025;BME280;11176;51.448;6.650;2023-03-19T05:26:29;45466.19;;;-141.29;100.00
22025;BME280;11176;51.448;6.650;2023-03-19T05:29:21;45466.19;;;-141.29;100.00
22025;BME280;11176;51.448;6.650;2023-03-19T05:32:15;45470.19;;;-141.29;100.00
22025;BME280;11176;51.448;6.650;2023-03-19T05:34:43;45480.16;;;-141.29;100.00
22025;BME280;11176;51.448;6.650;2023-03-19T05:37:09;45484.16;;;-141.29;100.00
22025;BME280;11176;51.448;6.650;2023-03-19T05:39:37;45486.16;;;-141.29;100.00
22025;BME280;11176;51.448;6.650;2023-03-19T05:42:07;45468.19;;;-141.29;100.00
22025;BME280;11176;51.448;6.650;2023-03-19T05:44:34;45474.16;;;-141.29;100.00
22025;BME280;11176;51.448;6.650;2023-03-19T05:47:23;45462.19;;;-141.29;100.00
22025;BME280;11176;51.448;6.650;2023-03-19T05:49:53;45478.16;;;-141.29;100.00
22025;BME280;11176;51.448;6.650;2023-03-19T05:52:20;45476.16;;;-141.29;100.00
22025;BME280;11176;51.448;6.650;2023-03-19T05:54:47;45466.19;;;-141.29;100.00
22025;BME280;11176;51.448;6.650;2023-03-19T05:57:26;45476.16;;;-141.29;100.00
22025;BME280;11176;51.448;6.650;2023-03-19T06:00:04;45478.16;;;-141.29;100.00
22025;BME280;11176;51.448;6.650;2023-03-19T06:02:33;45472.16;;;-141.29;100.00
22025;BME280;11176;51.448;6.650;2023-03-19T06:05:33;45482.16;;;-141.29;100.00
22025;BME280;11176;51.448;6.650;2023-03-19T06:08:19;45476.16;;;-141.29;100.00
22025;BME280;11176;51.448;6.650;2023-03-19T06:11:09;45466.19;;;-141.29;100.00
22025;BME280;11176;51.448;6.650;2023-03-19T06:13:36;45494.16;;;-141.29;100.00
22025;BME280;11176;51.448;6.650;2023-03-19T06:16:05;45486.16;;;-141.29;100.00
22025;BME280;11176;51.448;6.650;2023-03-19T06:18:45;45480.16;;;-141.29;100.00
22025;BME280;11176;51.448;6.650;2023-03-19T06:21:13;45482.16;;;-141.29;100.00
22025;BME280;11176;51.448;6.650;2023-03-19T06:23:41;45494.16;;;-141.29;100.00
22025;BME280;11176;51.448;6.650;2023-03-19T06:26:10;45468.19;;;-141.29;100.00
22025;BME280;11176;51.448;6.650;2023-03-19T06:28:45;45478.16;;;-141.29;100.00
22025;BME280;11176;51.448;6.650;2023-03-19T06:31:12;45490.16;;;-141.29;100.00
22025;BME280;11176;51.448;6.650;2023-03-19T06:33:51;45470.19;;;-141.29;100.00
22025;BME280;11176;51.448;6.650;2023-03-19T06:36:18;45478.16;;;-141.29;100.00
22025;BME280;11176;51.448;6.650;2023-03-19T06:38:46;45478.16;;;-141.29;100.00
22025;BME280;11176;51.448;6.650;2023-03-19T06:41:12;45486.16;;;-141.29;100.00
22025;BME280;11176;51.448;6.650;2023-03-19T06:43:40;45454.19;;;-141.29;100.00
22025;BME280;11176;51.448;6.650;2023-03-19T06:46:08;45478.16;;;-141.29;100.00
22025;BME280;11176;51.448;6.650;2023-03-19T06:48:37;45466.19;;;-141.29;100.00
22025;BME280;11176;51.448;6.650;2023-03-19T06:51:05;45464.19;;;-141.29;100.00
22025;BME280;11176;51.448;6.650;2023-03-19T06:53:32;45470.19;;;-141.29;100.00
22025;BME280;11176;51.448;6.650;2023-03-19T06:55:59;45476.16;;;-141.29;100.00
22025;BME280;11176;51.448;6.650;2023-03-19T06:58:25;45482.16;;;-141.29;100.00
22025;BME280;11176;51.448;6.650;2023-03-19T07:00:52;45466.19;;;-141.29;100.00
22025;BME280;11176;51.448;6.650;2023-03-19T07:03:18;45486.16;;;-141.29;100.00
22025;BME280;11176;51.448;6.650;2023-03-19T07:05:49;45494.16;;;-141.29;100.00
22025;BME280;11176;51.448;6.650;2023-03-19T07:08:16;45474.16;;;-141.29;100.00
22025;BME280;11176;51.448;6.650;2023-03-19T07:10:42;45474.16;;;-141.29;100.00
22025;BME280;11176;51.448;6.650;2023-03-19T07:13:08;45470.19;;;-141.29;100.00
22025;BME280;11176;51.448;6.650;2023-03-19T07:15:35;45482.16;;;-141.29;100.00
22025;BME280;11176;51.448;6.650;2023-03-19T07:18:02;45462.19;;;-141.29;100.00
22025;BME280;11176;51.448;6.650;2023-03-19T07:20:28;45474.16;;;-141.29;100.00
22025;BME280;11176;51.448;6.650;2023-03-19T07:22:55;45476.16;;;-141.29;100.00
22025;BME280;11176;51.448;6.650;2023-03-19T07:25:21;45478.16;;;-141.29;100.00
22025;BME280;11176;51.448;6.650;2023-03-19T07:27:48;45472.16;;;-141.29;100.00
22025;BME280;11176;51.448;6.650;2023-03-19T07:30:14;45468.19;;;-141.29;100.00
22025;BME280;11176;51.448;6.650;2023-03-19T07:32:41;45458.19;;;-141.29;100.00
22025;BME280;11176;51.448;6.650;2023-03-19T07:35:08;45470.19;;;-141.29;100.00
22025;BME280;11176;51.448;6.650;2023-03-19T07:37:35;45460.19;;;-141.29;100.00
22025;BME280;11176;51.448;6.650;2023-03-19T07:40:02;45472.16;;;-141.29;100.00
22025;BME280;11176;51.448;6.650;2023-03-19T07:42:30;45468.19;;;-141.29;100.00
22025;BME280;11176;51.448;6.650;2023-03-19T07:44:56;45470.19;;;-141.29;100.00
22025;BME280;11176;51.448;6.650;2023-03-19T07:47:23;45478.16;;;-141.29;100.00
22025;BME280;11176;51.448;6.650;2023-03-19T07:49:56;45474.16;;;-141.29;100.00
22025;BME280;11176;51.448;6.650;2023-03-19T07:52:24;45444.19;;;-141.29;100.00
22025;BME280;11176;51.448;6.650;2023-03-19T07:54:51;45450.19;;;-141.29;100.00
22025;BME280;11176;51.448;6.650;2023-03-19T07:57:17;45464.19;;;-141.29;100.00
22025;BME280;11176;51.448;6.650;2023-03-19T07:59:44;45456.19;;;-141.29;100.00
22025;BME280;11176;51.448;6.650;2023-03-19T08:02:11;45470.19;;;-141.29;100.00
22025;BME280;11176;51.448;6.650;2023-03-19T08:04:38;45464.19;;;-141.29;100.00
22025;BME280;11176;51.448;6.650;2023-03-19T08:07:05;45466.19;;;-141.29;100.00
22025;BME280;11176;51.448;6.650;2023-03-19T08:09:32;45454.19;;;-141.29;100.00
22025;BME280;11176;51.448;6.650;2023-03-19T08:11:59;45448.19;;;-141.29;100.00
22025;BME280;11176;51.448;6.650;2023-03-19T08:14:25;45450.19;;;-141.29;100.00
22025;BME280;11176;51.448;6.650;2023-03-19T08:16:52;45462.19;;;-141.29;100.00
22025;BME280;11176;51.448;6.650;2023-03-19T08:19:19;45454.19;;;-141.29;100.00
22025;BME280;11176;51.448;6.650;2023-03-19T08:21:45;45458.19;;;-141.29;100.00
22025;BME280;11176;51.448;6.650;2023-03-19T08:24:12;45462.19;;;-141.29;100.00
22025;BME280;11176;51.448;6.650;2023-03-19T08:26:39;45452.19;;;-141.29;100.00
22025;BME280;11176;51.448;6.650;2023-03-19T08:29:05;45462.19;;;-141.29;100.00
22025;BME280;11176;51.448;6.650;2023-03-19T08:31:32;45460.19;;;-141.29;100.00
22025;BME280;11176;51.448;6.650;2023-03-19T08:33:59;45452.19;;;-141.29;100.00
22025;BME280;11176;51.448;6.650;2023-03-19T08:36:27;45440.19;;;-141.29;100.00
22025;BME280;11176;51.448;6.650;2023-03-19T08:38:54;45446.19;;;-141.29;100.00
22025;BME280;11176;51.448;6.650;2023-03-19T08:41:21;45438.19;;;-141.29;100.00
22025;BME280;11176;51.448;6.650;2023-03-19T08:43:48;45444.19;;;-141.29;100.00
22025;BME280;11176;51.448;6.650;2023-03-19T08:46:15;45442.19;;;-141.29;100.00
22025;BME280;11176;51.448;6.650;2023-03-19T08:48:41;45434.19;;;-141.29;100.00
22025;BME280;11176;51.448;6.650;2023-03-19T08:51:08;45444.19;;;-141.29;100.00
22025;BME280;11176;51.448;6.650;2023-03-19T08:53:35;45414.22;;;-141.29;100.00
22025;BME280;11176;51.448;6.650;2023-03-19T08:56:05;45432.19;;;-141.29;100.00
22025;BME280;11176;51.448;6.650;2023-03-19T08:58:33;45426.22;;;-141.29;100.00
22025;BME280;11176;51.448;6.650;2023-03-19T09:01:05;45450.19;;;-141.29;100.00
22025;BME280;11176;51.448;6.650;2023-03-19T09:03:32;45422.22;;;-141.29;100.00
22025;BME280;11176;51.448;6.650;2023-03-19T09:06:00;45426.22;;;-141.29;100.00
22025;BME280;11176;51.448;6.650;2023-03-19T09:08:27;45442.19;;;-141.29;100.00
22025;BME280;11176;51.448;6.650;2023-03-19T09:10:56;45436.19;;;-141.29;100.00
22025;BME280;11176;51.448;6.650;2023-03-19T09:13:23;45434.19;;;-141.29;100.00
22025;BME280;11176;51.448;6.650;2023-03-19T09:15:51;45418.22;;;-141.29;100.00
22025;BME280;11176;51.448;6.650;2023-03-19T09:18:18;45438.19;;;-141.29;100.00
22025;BME280;11176;51.448;6.650;2023-03-19T09:20:46;45422.22;;;-141.29;100.00
22025;BME280;11176;51.448;6.650;2023-03-19T09:23:13;45424.22;;;-141.29;100.00
22025;BME280;11176;51.448;6.650;2023-03-19T09:25:39;45422.22;;;-141.29;100.00
22025;BME280;11176;51.448;6.650;2023-03-19T09:28:06;45426.22;;;-141.29;100.00
22025;BME280;11176;51.448;6.650;2023-03-19T09:30:33;45420.22;;;-141.29;100.00
22025;BME280;11176;51.448;6.650;2023-03-19T09:32:59;45442.19;;;-141.29;100.00
22025;BME280;11176;51.448;6.650;2023-03-19T09:35:26;45426.22;;;-141.29;100.00
22025;BME280;11176;51.448;6.650;2023-03-19T09:37:59;45426.22;;;-141.29;100.00
22025;BME280;11176;51.448;6.650;2023-03-19T09:40:36;45434.19;;;-141.29;100.00
22025;BME280;11176;51.448;6.650;2023-03-19T09:43:07;45432.19;;;-141.29;100.00
22025;BME280;11176;51.448;6.650;2023-03-19T09:45:44;45434.19;;;-141.29;100.00
22025;BME280;11176;51.448;6.650;2023-03-19T09:48:18;45430.22;;;-141.29;100.00
22025;BME280;11176;51.448;6.650;2023-03-19T09:50:54;45428.22;;;-141.29;100.00
22025;BME280;11176;51.448;6.650;2023-03-19T09:53:50;45442.19;;;-141.29;100.00
22025;BME280;11176;51.448;6.650;2023-03-19T09:56:19;45434.19;;;-141.29;100.00
22025;BME280;11176;51.448;6.650;2023-03-19T09:58:46;45434.19;;;-141.29;100.00
22025;BME280;11176;51.448;6.650;2023-03-19T10:01:28;45410.22;;;-141.29;100.00
22025;BME280;11176;51.448;6.650;2023-03-19T10:04:15;45426.22;;;-141.29;100.00
22025;BME280;11176;51.448;6.650;2023-03-19T10:06:44;45422.22;;;-141.29;100.00
22025;BME280;11176;51.448;6.650;2023-03-19T10:18:23;45430.22;;;-141.29;99.55
22025;BME280;11176;51.448;6.650;2023-03-19T10:25:38;45410.22;;;-141.29;98.10
22025;BME280;11176;51.448;6.650;2023-03-19T10:28:16;45432.19;;;-141.29;96.64
22025;BME280;11176;51.448;6.650;2023-03-19T10:30:54;45422.22;;;-141.29;95.79
22025;BME280;11176;51.448;6.650;2023-03-19T10:33:51;45418.22;;;-141.29;94.86
22025;BME280;11176;51.448;6.650;2023-03-19T10:36:26;45422.22;;;-141.29;93.16
22025;BME280;11176;51.448;6.650;2023-03-19T10:38:56;45396.22;;;-141.29;93.50
22025;BME280;11176;51.448;6.650;2023-03-19T10:41:30;45406.22;;;-141.29;93.91
22025;BME280;11176;51.448;6.650;2023-03-19T10:44:07;45396.22;;;-141.29;93.43
22025;BME280;11176;51.448;6.650;2023-03-19T10:46:38;45402.22;;;-141.29;93.24
22025;BME280;11176;51.448;6.650;2023-03-19T10:49:11;45398.22;;;-141.29;91.84
22025;BME280;11176;51.448;6.650;2023-03-19T10:51:38;45400.22;;;-141.29;91.85
22025;BME280;11176;51.448;6.650;2023-03-19T10:54:18;45394.22;;;-141.29;91.47
22025;BME280;11176;51.448;6.650;2023-03-19T10:56:46;45396.22;;;-141.29;92.71
22025;BME280;11176;51.448;6.650;2023-03-19T11:01:47;45402.22;;;-141.29;91.62
22025;BME280;11176;51.448;6.650;2023-03-19T11:04:18;45388.25;;;-141.29;90.21
22025;BME280;11176;51.448;6.650;2023-03-19T11:06:50;45370.25;;;-141.29;87.32
22025;BME280;11176;51.448;6.650;2023-03-19T11:09:37;45378.25;;;-141.29;84.86
22025;BME280;11176;51.448;6.650;2023-03-19T11:12:23;45376.25;;;-141.29;85.64
22025;BME280;11176;51.448;6.650;2023-03-19T11:14:55;45362.25;;;-141.29;84.82
22025;BME280;11176;51.448;6.650;2023-03-19T11:17:27;45358.25;;;-141.29;81.36
22025;BME280;11176;51.448;6.650;2023-03-19T11:20:17;45368.25;;;-141.29;79.37
22025;BME280;11176;51.448;6.650;2023-03-19T11:22:44;45356.25;;;-141.29;78.74
22025;BME280;11176;51.448;6.650;2023-03-19T11:27:56;45352.28;;;-141.29;78.59
22025;BME280;11176;51.448;6.650;2023-03-19T11:30:25;45358.25;;;-141.29;77.83
22025;BME280;11176;51.448;6.650;2023-03-19T11:38:27;45360.25;;;-141.29;77.50
22025;BME280;11176;51.448;6.650;2023-03-19T11:41:17;45378.25;;;-141.29;75.80
22025;BME280;11176;51.448;6.650;2023-03-19T11:43:52;45362.25;;;-141.29;76.62
22025;BME280;11176;51.448;6.650;2023-03-19T11:46:42;45350.28;;;-141.29;77.95
22025;BME280;11176;51.448;6.650;2023-03-19T11:49:38;45378.25;;;-141.29;77.60
22025;BME280;11176;51.448;6.650;2023-03-19T11:52:19;45382.25;;;-141.29;77.71
22025;BME280;11176;51.448;6.650;2023-03-19T12:00:24;45362.25;;;-141.29;77.11
22025;BME280;11176;51.448;6.650;2023-03-19T12:05:55;45350.28;;;-141.29;73.06
22025;BME280;11176;51.448;6.650;2023-03-19T12:11:28;45350.28;;;-141.29;71.54
22025;BME280;11176;51.448;6.650;2023-03-19T12:14:19;45338.28;;;-141.29;69.85
22025;BME280;11176;51.448;6.650;2023-03-19T12:17:02;45334.28;;;-141.29;70.55
22025;BME280;11176;51.448;6.650;2023-03-19T12:28:22;45326.28;;;-141.29;69.25
22025;BME280;11176;51.448;6.650;2023-03-19T12:33:48;45322.28;;;-141.29;70.01
22025;BME280;11176;51.448;6.650;2023-03-19T12:36:23;45314.28;;;-141.29;69.71
22025;BME280;11176;51.448;6.650;2023-03-19T12:38:55;45314.28;;;-141.29;68.88
22025;BME280;11176;51.448;6.650;2023-03-19T12:41:26;45296.31;;;-141.29;66.17
22025;BME280;11176;51.448;6.650;2023-03-19T12:44:03;45306.31;;;-141.29;66.91
22025;BME280;11176;51.448;6.650;2023-03-19T12:46:42;45274.34;;;-141.29;62.14
22025;BME280;11176;51.448;6.650;2023-03-19T12:49:23;45278.31;;;-141.29;59.08
22025;BME280;11176;51.448;6.650;2023-03-19T12:51:55;45278.31;;;-141.29;58.87
22025;BME280;11176;51.448;6.650;2023-03-19T12:54:27;45288.31;;;-141.29;56.70
22025;BME280;11176;51.448;6.650;2023-03-19T12:57:32;45270.34;;;-141.29;58.08
22025;BME280;11176;51.448;6.650;2023-03-19T13:00:27;45278.31;;;-141.29;57.12
22025;BME280;11176;51.448;6.650;2023-03-19T13:05:38;45264.34;;;-141.29;55.92
22025;BME280;11176;51.448;6.650;2023-03-19T13:08:15;45290.31;;;-141.29;56.46
22025;BME280;11176;51.448;6.650;2023-03-19T13:10:44;45278.31;;;-141.29;57.15
22025;BME280;11176;51.448;6.650;2023-03-19T13:15:46;45286.31;;;-141.29;58.31
22025;BME280;11176;51.448;6.650;2023-03-19T13:18:42;45272.34;;;-141.29;57.29
22025;BME280;11176;51.448;6.650;2023-03-19T13:21:31;45270.34;;;-141.29;56.74
22025;BME280;11176;51.448;6.650;2023-03-19T13:24:01;45282.31;;;-141.29;57.16
22025;BME280;11176;51.448;6.650;2023-03-19T13:26:29;45270.34;;;-141.29;54.85
22025;BME280;11176;51.448;6.650;2023-03-19T13:29:08;45270.34;;;-141.29;54.20
22025;BME280;11176;51.448;6.650;2023-03-19T13:31:36;45270.34;;;-141.29;55.28
22025;BME280;11176;51.448;6.650;2023-03-19T13:34:27;45246.34;;;-141.29;58.15
22025;BME280;11176;51.448;6.650;2023-03-19T13:36:53;45246.34;;;-141.29;59.19
22025;BME280;11176;51.448;6.650;2023-03-19T13:39:25;45226.38;;;-141.29;54.20
22025;BME280;11176;51.448;6.650;2023-03-19T13:45:26;45236.38;;;-141.29;47.63
22025;BME280;11176;51.448;6.650;2023-03-19T13:47:57;45226.38;;;-141.29;46.52
22025;BME280;11176;51.448;6.650;2023-03-19T13:53:34;45222.38;;;-141.29;44.80